EPGD Airport Information

Runway Information
Runway 11 Length 9186 ft width 148 ft
Elevation 450 ft Threshold 0 ft Heading 113
Runway 29 Length 9186 ft Width 148 ft
Elevation 489 ft Threshold 0 ft Heading 293
Airport Frequencies
Type APP Name GDANSK APP Frequency 127.275 MHZ
Type ATIS Name ATIS Frequency 129.625 MHZ
Type TWR Name GDANSK TWR Frequency 118.1 MHZ
Airport Navaids
Type NDB Name Gdansk Frequency 322 KHZ
Type VOR-DME Name Kartuzy Frequency 113200 KHZ
Type NDB Name Gdansk Frequency 383 KHZ
Airport Weather Information & NOTAM
ADDS - METARS form results

(2123 UTC 01 October 2020)
Data provider http://aviationweather.gov/metar/data/
 
METAR text: EPGD 012100Z 12012KT 9999 FEW026 SCT040 14/10 Q1007
Conditions at: EPGD (GDANSK/REBIECHOW, PL) observed 2100 UTC 01 October 2020
Temperature: 14.0°C (57°F)
Dewpoint: 10.0°C (50°F) [RH = 77%]
Pressure (altimeter): 29.73 inches Hg (1007.0 mb)
Winds: from the ESE (120 degrees) at 14 MPH (12 knots; 6.2 m/s)
Visibility: 6 or more miles (10+ km)
Ceiling: at least 12,000 feet AGL
Clouds: few clouds at 2600 feet AGL
scattered clouds at 4000 feet AGL
Weather: no significant weather observed at this time

METAR text: EPGD 012030Z 11016KT 9999 FEW023 14/10 Q1007
Conditions at: EPGD (GDANSK/REBIECHOW, PL) observed 2030 UTC 01 October 2020
Temperature: 14.0°C (57°F)
Dewpoint: 10.0°C (50°F) [RH = 77%]
Pressure (altimeter): 29.73 inches Hg (1007.0 mb)
Winds: from the ESE (110 degrees) at 18 MPH (16 knots; 8.2 m/s)
Visibility: 6 or more miles (10+ km)
Ceiling: at least 12,000 feet AGL
Clouds: few clouds at 2300 feet AGL
Weather: no significant weather observed at this time

Forecast for: EPGD (GDANSK/REBIECHOW, PL)
Text: TAF EPGD 011730Z 0118/0218 08008KT 9999 BKN035
Forecast period: 1800 UTC 01 October 2020 to 1800 UTC 02 October 2020
Forecast type: FROM: standard forecast or significant change
Winds: from the E (80 degrees) at 9 MPH (8 knots; 4.1 m/s)
Visibility: 6 or more miles (10+ km)
Ceiling: 3500 feet AGL
Clouds: broken clouds at 3500 feet AGL
Weather: no significant weather forecast for this period
Text: PROB40 0200/0207 BKN007
Forecast period: 0000 to 0700 UTC 02 October 2020
Forecast type: PROBABLE: 40 percent likelihood of the following during this time
Visibility: missing
Ceiling: 700 feet AGL
Clouds: broken clouds at 700 feet AGL
Weather: no significant weather forecast for this period
Text: PROB40 0207/0210 BKN013
Forecast period: 0700 to 1000 UTC 02 October 2020
Forecast type: PROBABLE: 40 percent likelihood of the following during this time
Visibility: missing
Ceiling: 1300 feet AGL
Clouds: broken clouds at 1300 feet AGL
Weather: no significant weather forecast for this period